Time;durP1;ratioP1;P1;durP2;ratioP2;P2;SDS_P1;SDS_P2;PMS_P1;PMS_P2;Temp;Humidity;BMP_temperature;BMP_pressure;BME280_temperature;BME280_humidity;BME280_pressure;Samples;Min_cycle;Max_cycle;Signal;HPM_P1;HPM_P2
2024/01/10 00:01:55;;;;;;;20.40;9.97;;;;;;;;;;5021986;28;20417;-82
2024/01/10 00:04:22;;;;;;;18.90;10.73;;;;;;;;;;4997373;28;20218;-81
2024/01/10 00:06:48;;;;;;;19.60;10.60;;;;;;;;;;5004780;28;20190;-79
2024/01/10 00:09:14;;;;;;;17.10;9.80;;;;;;;;;;4976607;28;20218;-80
2024/01/10 00:11:40;;;;;;;21.07;10.60;;;;;;;;;;4909144;28;20456;-81
2024/01/10 00:14:06;;;;;;;19.87;11.13;;;;;;;;;;4864847;28;20222;-81
2024/01/10 00:16:32;;;;;;;18.73;10.20;;;;;;;;;;4950319;28;20180;-81
2024/01/10 00:18:59;;;;;;;20.97;11.17;;;;;;;;;;4855642;28;20475;-79
2024/01/10 00:21:25;;;;;;;21.40;11.00;;;;;;;;;;5051981;28;20182;-81
2024/01/10 00:23:51;;;;;;;19.17;10.60;;;;;;;;;;5005785;28;20209;-82
2024/01/10 00:26:17;;;;;;;23.10;10.53;;;;;;;;;;5008598;28;20194;-81
2024/01/10 00:28:45;;;;;;;19.90;10.80;;;;;;;;;;5008751;28;20270;-81
2024/01/10 00:31:12;;;;;;;17.20;10.27;;;;;;;;;;5011646;28;20452;-81
2024/01/10 00:33:39;;;;;;;27.73;14.60;;;;;;;;;;5011854;28;20233;-82
2024/01/10 00:36:06;;;;;;;19.77;10.90;;;;;;;;;;5027070;28;20456;-81
2024/01/10 00:38:32;;;;;;;24.03;12.90;;;;;;;;;;5023149;28;20565;-81
2024/01/10 00:40:58;;;;;;;19.87;11.30;;;;;;;;;;5007713;28;20193;-81
2024/01/10 00:43:24;;;;;;;23.83;11.10;;;;;;;;;;5016982;28;20437;-81
2024/01/10 00:45:51;;;;;;;20.30;10.80;;;;;;;;;;5014064;28;20517;-81
2024/01/10 00:48:17;;;;;;;18.43;10.30;;;;;;;;;;5009371;28;20961;-81
2024/01/10 00:50:44;;;;;;;20.03;10.90;;;;;;;;;;4994754;28;20272;-81
2024/01/10 00:53:10;;;;;;;18.30;10.50;;;;;;;;;;5013100;28;20309;-81
2024/01/10 00:55:36;;;;;;;20.10;11.00;;;;;;;;;;4997861;28;20211;-81
2024/01/10 00:58:03;;;;;;;20.40;11.10;;;;;;;;;;4992494;28;20437;-81
2024/01/10 01:00:29;;;;;;;19.90;10.33;;;;;;;;;;4995429;28;20545;-82
2024/01/10 01:02:55;;;;;;;22.40;11.17;;;;;;;;;;5026116;28;20639;-81
2024/01/10 01:05:21;;;;;;;21.60;11.30;;;;;;;;;;5014429;28;20452;-81
2024/01/10 01:07:48;;;;;;;23.57;10.97;;;;;;;;;;5021943;28;20197;-81
2024/01/10 01:10:14;;;;;;;24.83;11.23;;;;;;;;;;5026193;28;20558;-82
2024/01/10 01:12:40;;;;;;;18.87;10.60;;;;;;;;;;5027693;28;20669;-81
2024/01/10 01:15:07;;;;;;;19.37;10.67;;;;;;;;;;4999205;28;20324;-81
2024/01/10 01:17:34;;;;;;;21.33;10.67;;;;;;;;;;5025511;28;20187;-81
2024/01/10 01:20:00;;;;;;;21.30;11.27;;;;;;;;;;5013857;28;20920;-81
2024/01/10 01:22:26;;;;;;;20.23;10.57;;;;;;;;;;4996931;28;20194;-81
2024/01/10 01:24:53;;;;;;;22.90;11.37;;;;;;;;;;5000914;28;20194;-81
2024/01/10 01:27:19;;;;;;;20.43;11.23;;;;;;;;;;5031588;28;20187;-82
2024/01/10 01:29:45;;;;;;;20.33;11.20;;;;;;;;;;5012036;28;20341;-81
2024/01/10 01:32:11;;;;;;;20.27;10.53;;;;;;;;;;5010237;28;20528;-82
2024/01/10 01:34:38;;;;;;;19.87;11.00;;;;;;;;;;5015730;28;20495;-82
2024/01/10 01:37:05;;;;;;;22.07;11.23;;;;;;;;;;5016294;28;20613;-82
2024/01/10 01:39:31;;;;;;;20.37;10.87;;;;;;;;;;5014044;28;20433;-82
2024/01/10 01:41:58;;;;;;;19.93;11.80;;;;;;;;;;5012764;28;20588;-82
2024/01/10 01:44:24;;;;;;;24.27;10.87;;;;;;;;;;5023342;28;20491;-82
2024/01/10 01:46:50;;;;;;;18.77;10.87;;;;;;;;;;5012397;28;20187;-82
2024/01/10 01:49:17;;;;;;;19.93;10.97;;;;;;;;;;5015705;28;20183;-82
2024/01/10 01:51:43;;;;;;;20.50;10.80;;;;;;;;;;5027378;28;20280;-82
2024/01/10 01:54:11;;;;;;;20.67;11.57;;;;;;;;;;5016468;28;20567;-82
2024/01/10 01:56:37;;;;;;;22.23;11.57;;;;;;;;;;5029800;28;20705;-82
2024/01/10 01:59:05;;;;;;;20.10;10.87;;;;;;;;;;5033999;28;20448;-82
2024/01/10 02:01:31;;;;;;;21.87;11.33;;;;;;;;;;4996316;28;20188;-81
2024/01/10 02:03:57;;;;;;;19.57;10.93;;;;;;;;;;5004481;28;20441;-81
2024/01/10 02:06:24;;;;;;;20.60;11.10;;;;;;;;;;5019162;28;21332;-83
2024/01/10 02:08:52;;;;;;;20.93;11.87;;;;;;;;;;5012933;28;20203;-82
2024/01/10 02:11:18;;;;;;;23.13;11.10;;;;;;;;;;5004588;28;20229;-82
2024/01/10 02:13:44;;;;;;;25.10;12.57;;;;;;;;;;5023296;28;21148;-82
2024/01/10 02:16:11;;;;;;;21.70;11.37;;;;;;;;;;5029816;28;20948;-82
2024/01/10 02:18:38;;;;;;;22.37;11.77;;;;;;;;;;5009505;28;20437;-82
2024/01/10 02:21:04;;;;;;;23.70;12.90;;;;;;;;;;5033708;28;20800;-82
2024/01/10 02:23:30;;;;;;;25.67;14.37;;;;;;;;;;5014357;28;20278;-82
2024/01/10 02:25:56;;;;;;;23.07;12.07;;;;;;;;;;5025865;28;20183;-82
2024/01/10 02:28:25;;;;;;;21.53;11.13;;;;;;;;;;5033900;28;21466;-82
2024/01/10 02:30:53;;;;;;;20.70;11.57;;;;;;;;;;5012355;28;20257;-82
2024/01/10 02:33:19;;;;;;;19.33;11.00;;;;;;;;;;5024309;28;20207;-82
2024/01/10 02:35:45;;;;;;;19.80;11.20;;;;;;;;;;5025426;28;20336;-82
2024/01/10 02:38:11;;;;;;;21.27;11.83;;;;;;;;;;4999444;28;20194;-81
2024/01/10 02:40:38;;;;;;;21.43;11.77;;;;;;;;;;5027554;28;20282;-82
2024/01/10 02:43:04;;;;;;;23.37;12.37;;;;;;;;;;5031837;28;20300;-83
2024/01/10 02:45:30;;;;;;;25.43;11.83;;;;;;;;;;5029044;28;20195;-82
2024/01/10 02:47:56;;;;;;;23.97;12.73;;;;;;;;;;5009415;28;20450;-82
2024/01/10 02:50:22;;;;;;;20.10;11.37;;;;;;;;;;5013541;28;20196;-82
2024/01/10 02:52:48;;;;;;;23.10;12.23;;;;;;;;;;5031341;28;20519;-82
2024/01/10 02:55:14;;;;;;;21.80;11.93;;;;;;;;;;5023518;28;20487;-82
2024/01/10 02:57:40;;;;;;;23.43;11.60;;;;;;;;;;5025227;28;20589;-82
2024/01/10 03:00:07;;;;;;;24.10;12.00;;;;;;;;;;5028324;28;20538;-83
2024/01/10 03:02:33;;;;;;;22.83;11.87;;;;;;;;;;5028764;28;20503;-82
2024/01/10 03:04:59;;;;;;;24.37;12.03;;;;;;;;;;5024972;28;20209;-82
2024/01/10 03:07:25;;;;;;;21.43;11.60;;;;;;;;;;5029383;28;20191;-82
2024/01/10 03:09:52;;;;;;;20.80;11.87;;;;;;;;;;5009905;28;20702;-82
2024/01/10 03:12:18;;;;;;;22.83;12.23;;;;;;;;;;5011323;28;20187;-83
2024/01/10 03:14:45;;;;;;;20.70;12.00;;;;;;;;;;5026721;28;20214;-82
2024/01/10 03:17:11;;;;;;;24.83;12.30;;;;;;;;;;5006573;28;20182;-82
2024/01/10 03:19:42;;;;;;;21.90;12.00;;;;;;;;;;5029857;28;20785;-82
2024/01/10 03:22:08;;;;;;;23.03;12.40;;;;;;;;;;5024158;28;20507;-82
2024/01/10 03:24:34;;;;;;;23.63;12.93;;;;;;;;;;5025882;28;20263;-82
2024/01/10 03:27:00;;;;;;;22.27;11.87;;;;;;;;;;5031451;28;20417;-82
2024/01/10 03:29:27;;;;;;;22.30;12.53;;;;;;;;;;5025212;28;20194;-82
2024/01/10 03:31:53;;;;;;;24.37;11.83;;;;;;;;;;5040149;28;20246;-82
2024/01/10 03:34:19;;;;;;;23.97;12.50;;;;;;;;;;5008711;28;20451;-82
2024/01/10 03:36:45;;;;;;;24.93;12.60;;;;;;;;;;5009990;28;20179;-82
2024/01/10 03:39:11;;;;;;;20.33;11.37;;;;;;;;;;4999469;28;20233;-82
2024/01/10 03:41:38;;;;;;;22.63;11.40;;;;;;;;;;5022549;28;20835;-82
2024/01/10 03:44:05;;;;;;;23.87;12.20;;;;;;;;;;5006557;28;20215;-82
2024/01/10 03:46:31;;;;;;;23.63;11.20;;;;;;;;;;5008374;28;20194;-82
2024/01/10 03:48:57;;;;;;;19.67;10.97;;;;;;;;;;5010350;28;20658;-82
2024/01/10 03:51:23;;;;;;;20.23;10.50;;;;;;;;;;5010148;28;20453;-82
2024/01/10 03:53:49;;;;;;;21.40;11.43;;;;;;;;;;5029235;28;20987;-81
2024/01/10 03:56:15;;;;;;;19.53;9.50;;;;;;;;;;5028414;28;20523;-82
2024/01/10 03:58:42;;;;;;;20.83;10.80;;;;;;;;;;5015371;28;20441;-83
2024/01/10 04:01:08;;;;;;;22.13;10.60;;;;;;;;;;5029140;28;20260;-82
2024/01/10 04:03:35;;;;;;;20.57;10.83;;;;;;;;;;4998812;28;20254;-82
2024/01/10 04:06:02;;;;;;;21.23;12.13;;;;;;;;;;5028404;28;20191;-82
2024/01/10 04:08:28;;;;;;;21.83;11.63;;;;;;;;;;5015048;28;20780;-82
2024/01/10 04:10:54;;;;;;;22.17;11.30;;;;;;;;;;5030957;28;20461;-82
2024/01/10 04:13:20;;;;;;;17.67;10.07;;;;;;;;;;4998289;28;20496;-82
2024/01/10 04:15:47;;;;;;;18.20;9.20;;;;;;;;;;5027219;28;20210;-82
2024/01/10 04:18:13;;;;;;;19.60;9.67;;;;;;;;;;5028525;28;20285;-82
2024/01/10 04:20:39;;;;;;;17.73;9.53;;;;;;;;;;5032420;28;20970;-82
2024/01/10 04:23:05;;;;;;;21.60;10.70;;;;;;;;;;5030956;28;20202;-82
2024/01/10 04:25:31;;;;;;;20.83;11.10;;;;;;;;;;5011007;28;20257;-82
2024/01/10 04:27:57;;;;;;;21.53;10.70;;;;;;;;;;5011621;28;20213;-82
2024/01/10 04:30:23;;;;;;;19.10;9.67;;;;;;;;;;5031768;28;20206;-82
2024/01/10 04:32:50;;;;;;;19.57;10.30;;;;;;;;;;5014225;28;20219;-82
2024/01/10 04:35:16;;;;;;;19.77;10.27;;;;;;;;;;5029043;28;20202;-82
2024/01/10 04:37:42;;;;;;;19.33;9.97;;;;;;;;;;5009056;28;20191;-82
2024/01/10 04:40:08;;;;;;;17.77;10.00;;;;;;;;;;5014357;28;20464;-82
2024/01/10 04:42:35;;;;;;;22.43;11.50;;;;;;;;;;5029610;28;20208;-81
2024/01/10 04:45:01;;;;;;;18.17;10.50;;;;;;;;;;5031491;28;20203;-82
2024/01/10 04:47:27;;;;;;;23.10;11.47;;;;;;;;;;5026512;28;20190;-82
2024/01/10 04:49:53;;;;;;;17.67;10.07;;;;;;;;;;5029301;28;20191;-82
2024/01/10 04:52:19;;;;;;;18.90;10.63;;;;;;;;;;5026054;28;20194;-82
2024/01/10 04:54:45;;;;;;;17.53;10.03;;;;;;;;;;5028405;28;20294;-82
2024/01/10 04:57:11;;;;;;;21.37;10.90;;;;;;;;;;5032737;28;20198;-82
2024/01/10 04:59:38;;;;;;;20.30;11.03;;;;;;;;;;5015363;28;20205;-82
2024/01/10 05:02:04;;;;;;;20.27;10.67;;;;;;;;;;5015425;28;20278;-82
2024/01/10 05:04:30;;;;;;;19.20;10.77;;;;;;;;;;5013728;28;20206;-82
2024/01/10 05:06:56;;;;;;;17.83;10.00;;;;;;;;;;5015193;28;20206;-82
2024/01/10 05:09:22;;;;;;;20.90;12.32;;;;;;;;;;5040340;28;20417;-81
2024/01/10 05:11:51;;;;;;;20.90;11.57;;;;;;;;;;5042370;28;20810;-83
2024/01/10 05:14:19;;;;;;;16.97;10.07;;;;;;;;;;5031407;28;20461;-82
2024/01/10 05:16:47;;;;;;;18.07;11.13;;;;;;;;;;5024367;28;20238;-82
2024/01/10 05:19:13;;;;;;;18.67;10.50;;;;;;;;;;5049627;28;20478;-82
2024/01/10 05:21:39;;;;;;;20.37;10.67;;;;;;;;;;5019915;28;20240;-82
2024/01/10 05:24:06;;;;;;;17.80;11.20;;;;;;;;;;5038524;28;20430;-82
2024/01/10 05:26:32;;;;;;;18.03;10.17;;;;;;;;;;5036367;28;20188;-82
2024/01/10 05:28:58;;;;;;;19.73;11.70;;;;;;;;;;5019012;28;20265;-82
2024/01/10 05:31:24;;;;;;;18.43;10.67;;;;;;;;;;5033714;28;20279;-83
2024/01/10 05:33:50;;;;;;;17.20;9.53;;;;;;;;;;5019328;28;20218;-82
2024/01/10 05:36:16;;;;;;;18.17;10.40;;;;;;;;;;5030098;28;20179;-82
2024/01/10 05:38:42;;;;;;;20.23;10.30;;;;;;;;;;5020026;28;20285;-82
2024/01/10 05:41:08;;;;;;;21.17;10.70;;;;;;;;;;5033853;28;20198;-82
2024/01/10 05:43:35;;;;;;;20.10;11.00;;;;;;;;;;5028806;28;20207;-83
2024/01/10 05:46:01;;;;;;;20.70;11.10;;;;;;;;;;5002354;28;20330;-82
2024/01/10 05:48:27;;;;;;;20.73;11.13;;;;;;;;;;5038285;28;20186;-82
2024/01/10 05:50:53;;;;;;;24.70;11.37;;;;;;;;;;5033431;28;20194;-82
2024/01/10 05:53:19;;;;;;;22.07;11.77;;;;;;;;;;5019844;28;20220;-82
2024/01/10 05:55:45;;;;;;;23.93;12.27;;;;;;;;;;5031903;28;20210;-82
2024/01/10 05:58:11;;;;;;;24.27;11.73;;;;;;;;;;5019754;28;20174;-82
2024/01/10 06:00:38;;;;;;;23.77;11.13;;;;;;;;;;5014478;28;20458;-82
2024/01/10 06:03:04;;;;;;;19.57;10.87;;;;;;;;;;5030640;28;20199;-82
2024/01/10 06:05:33;;;;;;;19.87;10.57;;;;;;;;;;5024956;28;20289;-82
2024/01/10 06:07:59;;;;;;;19.40;10.30;;;;;;;;;;5026729;28;20194;-82
2024/01/10 06:10:26;;;;;;;18.97;9.93;;;;;;;;;;5020627;28;20190;-82
2024/01/10 06:12:52;;;;;;;19.43;10.53;;;;;;;;;;5014092;28;20807;-82
2024/01/10 06:15:18;;;;;;;19.23;10.10;;;;;;;;;;5008633;28;20464;-82
2024/01/10 06:17:44;;;;;;;18.00;9.83;;;;;;;;;;5030834;28;20245;-82
2024/01/10 06:20:10;;;;;;;18.97;10.43;;;;;;;;;;5033409;28;20182;-81
2024/01/10 06:22:36;;;;;;;20.17;10.23;;;;;;;;;;5034167;28;20202;-81
2024/01/10 06:25:03;;;;;;;20.10;10.40;;;;;;;;;;5035984;28;20264;-82
2024/01/10 06:27:30;;;;;;;17.47;10.10;;;;;;;;;;5032677;28;20179;-80
2024/01/10 06:29:56;;;;;;;18.87;9.97;;;;;;;;;;5035251;28;20209;-81
2024/01/10 06:32:22;;;;;;;19.13;10.70;;;;;;;;;;5033671;28;20179;-81
2024/01/10 06:34:48;;;;;;;21.57;11.80;;;;;;;;;;5036212;28;20495;-82
2024/01/10 06:37:14;;;;;;;22.40;12.45;;;;;;;;;;5033384;28;20793;-81
2024/01/10 06:39:41;;;;;;;22.53;12.77;;;;;;;;;;5002174;28;20958;-82
2024/01/10 06:42:10;;;;;;;19.93;11.10;;;;;;;;;;5033970;28;20183;-82
2024/01/10 06:44:37;;;;;;;18.47;10.90;;;;;;;;;;5014833;28;20206;-80
2024/01/10 06:47:03;;;;;;;19.60;11.13;;;;;;;;;;5012182;28;20228;-82
2024/01/10 06:49:30;;;;;;;19.98;12.48;;;;;;;;;;5024954;28;20429;-82
2024/01/10 06:51:56;;;;;;;19.07;10.93;;;;;;;;;;5032071;28;20190;-82
2024/01/10 06:54:22;;;;;;;22.60;12.10;;;;;;;;;;5032144;28;20318;-81
2024/01/10 06:56:48;;;;;;;20.10;11.43;;;;;;;;;;5030276;28;20197;-82
2024/01/10 06:59:14;;;;;;;20.80;12.00;;;;;;;;;;5025186;28;20663;-81
2024/01/10 07:01:40;;;;;;;19.43;11.43;;;;;;;;;;5032994;28;20332;-81
2024/01/10 07:04:06;;;;;;;19.33;11.10;;;;;;;;;;5006718;28;20305;-82
2024/01/10 07:06:32;;;;;;;22.25;13.65;;;;;;;;;;5031009;28;20425;-82
2024/01/10 07:08:59;;;;;;;24.53;13.70;;;;;;;;;;5033238;28;20186;-82
2024/01/10 07:11:28;;;;;;;23.73;12.63;;;;;;;;;;5020170;28;20202;-82
2024/01/10 07:13:54;;;;;;;25.37;13.40;;;;;;;;;;5030012;28;20211;-81
2024/01/10 07:16:20;;;;;;;22.00;12.97;;;;;;;;;;5015645;28;20241;-77
2024/01/10 07:18:47;;;;;;;23.80;12.93;;;;;;;;;;5027247;28;20763;-78
2024/01/10 07:21:13;;;;;;;22.17;11.73;;;;;;;;;;5025919;28;20517;-79
2024/01/10 07:23:40;;;;;;;20.13;11.27;;;;;;;;;;5030475;28;20689;-79
2024/01/10 07:26:07;;;;;;;20.80;10.87;;;;;;;;;;5031237;28;20638;-78
2024/01/10 07:28:33;;;;;;;20.27;11.13;;;;;;;;;;5021568;28;20187;-78
2024/01/10 07:31:02;;;;;;;19.73;11.13;;;;;;;;;;5007610;28;20229;-78
2024/01/10 07:33:31;;;;;;;22.27;11.73;;;;;;;;;;5022357;28;20675;-78
2024/01/10 07:35:58;;;;;;;21.23;11.60;;;;;;;;;;5008957;28;20595;-79
2024/01/10 07:38:24;;;;;;;20.73;11.80;;;;;;;;;;5019332;28;20190;-79
2024/01/10 07:40:50;;;;;;;23.57;12.97;;;;;;;;;;5008615;28;20213;-78
2024/01/10 07:43:17;;;;;;;23.20;13.33;;;;;;;;;;5020395;28;20627;-78
2024/01/10 07:45:43;;;;;;;23.53;13.57;;;;;;;;;;5007601;28;20352;-79
2024/01/10 07:48:10;;;;;;;24.77;13.10;;;;;;;;;;5024184;28;21097;-79
2024/01/10 07:50:37;;;;;;;25.53;13.57;;;;;;;;;;5010157;28;20244;-79
2024/01/10 07:53:03;;;;;;;23.73;13.20;;;;;;;;;;5008071;28;20600;-78
2024/01/10 07:55:32;;;;;;;21.83;12.83;;;;;;;;;;5017870;28;20578;-79
2024/01/10 07:57:58;;;;;;;25.50;13.87;;;;;;;;;;5020817;28;20179;-77
2024/01/10 08:00:24;;;;;;;20.83;12.57;;;;;;;;;;5023409;28;20218;-79
2024/01/10 08:02:50;;;;;;;24.33;13.77;;;;;;;;;;5025407;28;20713;-79
2024/01/10 08:05:16;;;;;;;24.27;13.80;;;;;;;;;;5007738;28;20183;-79
2024/01/10 08:07:43;;;;;;;25.63;13.33;;;;;;;;;;5011384;28;20527;-79
2024/01/10 08:10:09;;;;;;;25.63;12.90;;;;;;;;;;5029318;28;20190;-79
2024/01/10 08:12:36;;;;;;;23.53;12.63;;;;;;;;;;5015503;28;20186;-79
2024/01/10 08:15:03;;;;;;;27.30;13.50;;;;;;;;;;5021230;28;20260;-79
2024/01/10 08:17:30;;;;;;;24.13;12.70;;;;;;;;;;5025218;28;20231;-79
2024/01/10 08:19:56;;;;;;;24.57;13.03;;;;;;;;;;5019519;28;20182;-77
2024/01/10 08:22:23;;;;;;;25.63;13.47;;;;;;;;;;5022025;28;20357;-76
2024/01/10 08:24:49;;;;;;;21.43;12.03;;;;;;;;;;5023524;28;20194;-78
2024/01/10 08:27:16;;;;;;;23.70;13.00;;;;;;;;;;5023815;28;20186;-76
2024/01/10 08:29:44;;;;;;;21.73;11.83;;;;;;;;;;5024107;28;20195;-76
2024/01/10 08:32:10;;;;;;;24.80;13.30;;;;;;;;;;5023411;28;20302;-76
2024/01/10 08:34:36;;;;;;;24.23;13.23;;;;;;;;;;5024395;28;20352;-80
2024/01/10 08:37:03;;;;;;;28.97;16.03;;;;;;;;;;5004492;28;20546;-79
2024/01/10 08:39:30;;;;;;;21.47;11.83;;;;;;;;;;5023526;28;20651;-81
2024/01/10 08:42:00;;;;;;;22.10;12.30;;;;;;;;;;5007985;28;20189;-81
2024/01/10 08:44:26;;;;;;;21.80;12.20;;;;;;;;;;5025411;28;20244;-81
2024/01/10 08:46:52;;;;;;;22.40;12.00;;;;;;;;;;5024976;28;20190;-81
2024/01/10 08:49:19;;;;;;;22.00;11.90;;;;;;;;;;5011187;28;20202;-81
2024/01/10 08:51:46;;;;;;;21.07;10.83;;;;;;;;;;5008798;28;20480;-81
2024/01/10 08:54:16;;;;;;;23.13;11.97;;;;;;;;;;5025912;28;20280;-81
2024/01/10 08:56:46;;;;;;;19.97;11.47;;;;;;;;;;5011992;28;20191;-81
2024/01/10 08:59:12;;;;;;;22.37;11.17;;;;;;;;;;5007994;28;20182;-82
2024/01/10 09:01:38;;;;;;;21.53;12.10;;;;;;;;;;5031000;28;20193;-81
2024/01/10 09:04:05;;;;;;;19.30;10.77;;;;;;;;;;5033059;28;20263;-81
2024/01/10 09:06:32;;;;;;;22.70;11.63;;;;;;;;;;5034198;28;20212;-81
2024/01/10 09:08:58;;;;;;;19.87;11.37;;;;;;;;;;5013980;28;20214;-80
2024/01/10 09:11:24;;;;;;;21.77;11.90;;;;;;;;;;5032969;28;20182;-82
2024/01/10 09:13:51;;;;;;;20.07;11.00;;;;;;;;;;5029603;28;20206;-81
2024/01/10 09:16:20;;;;;;;21.23;11.80;;;;;;;;;;5013709;28;20195;-81
2024/01/10 09:18:48;;;;;;;22.50;11.50;;;;;;;;;;5027964;28;20248;-81
2024/01/10 09:21:15;;;;;;;20.93;11.23;;;;;;;;;;5025622;28;20638;-81
2024/01/10 09:23:41;;;;;;;19.77;11.40;;;;;;;;;;5010674;28;20218;-81
2024/01/10 09:26:08;;;;;;;20.00;10.80;;;;;;;;;;5026448;28;20519;-81
2024/01/10 09:28:34;;;;;;;22.77;11.87;;;;;;;;;;4990072;28;20304;-81
2024/01/10 09:31:01;;;;;;;20.47;11.73;;;;;;;;;;5008771;28;20201;-81
2024/01/10 09:33:27;;;;;;;25.40;12.87;;;;;;;;;;5007935;28;20210;-81
2024/01/10 09:35:53;;;;;;;22.77;11.27;;;;;;;;;;5009183;28;20636;-81
2024/01/10 09:38:19;;;;;;;21.30;11.53;;;;;;;;;;5025290;28;20194;-81
2024/01/10 09:40:45;;;;;;;22.07;11.97;;;;;;;;;;5026489;28;20171;-81
2024/01/10 09:43:12;;;;;;;20.67;12.00;;;;;;;;;;5006893;28;20211;-81
2024/01/10 09:45:46;;;;;;;23.70;12.43;;;;;;;;;;5026848;28;20179;-81
2024/01/10 09:48:15;;;;;;;20.93;12.23;;;;;;;;;;5023764;28;20205;-81
2024/01/10 09:50:41;;;;;;;23.53;12.37;;;;;;;;;;5025939;28;20281;-81
2024/01/10 09:53:08;;;;;;;21.63;11.73;;;;;;;;;;5028274;28;20315;-81
2024/01/10 09:55:35;;;;;;;20.27;11.93;;;;;;;;;;5017174;28;20206;-81
2024/01/10 09:58:04;;;;;;;22.00;12.73;;;;;;;;;;5033170;28;20182;-81
2024/01/10 10:00:30;;;;;;;20.83;12.07;;;;;;;;;;5035141;28;20296;-81
2024/01/10 10:02:57;;;;;;;20.97;11.67;;;;;;;;;;5035001;28;20198;-81
2024/01/10 10:05:24;;;;;;;18.77;11.77;;;;;;;;;;5036879;28;20252;-80
2024/01/10 10:07:51;;;;;;;23.13;12.80;;;;;;;;;;5038134;28;20248;-81
2024/01/10 10:10:18;;;;;;;18.60;11.70;;;;;;;;;;5036099;28;20194;-81
2024/01/10 10:12:46;;;;;;;19.77;12.37;;;;;;;;;;5038051;28;20230;-81
2024/01/10 10:15:13;;;;;;;22.43;12.50;;;;;;;;;;5034038;28;20223;-80
2024/01/10 10:17:46;;;;;;;21.73;12.47;;;;;;;;;;5017059;28;20174;-81
2024/01/10 10:20:13;;;;;;;22.63;12.63;;;;;;;;;;5034035;28;20209;-81
2024/01/10 10:22:40;;;;;;;24.73;13.43;;;;;;;;;;5017826;28;20218;-81
2024/01/10 10:25:06;;;;;;;23.90;12.97;;;;;;;;;;5016690;28;20233;-81
2024/01/10 10:27:32;;;;;;;24.63;12.57;;;;;;;;;;5030342;28;20195;-80
2024/01/10 10:29:58;;;;;;;23.23;12.60;;;;;;;;;;5036742;28;20285;-80
2024/01/10 10:32:24;;;;;;;27.77;13.30;;;;;;;;;;5000856;28;20278;-81
2024/01/10 10:34:51;;;;;;;21.73;13.53;;;;;;;;;;5035920;28;20195;-80
2024/01/10 10:37:17;;;;;;;21.53;12.40;;;;;;;;;;5016660;28;20193;-80
2024/01/10 10:39:44;;;;;;;22.67;12.83;;;;;;;;;;5035079;28;20182;-80
2024/01/10 10:42:10;;;;;;;21.40;12.27;;;;;;;;;;5014856;28;20213;-80
2024/01/10 10:44:36;;;;;;;20.27;11.60;;;;;;;;;;5031664;28;20207;-79
2024/01/10 10:47:05;;;;;;;20.27;11.20;;;;;;;;;;5034740;28;20241;-79
2024/01/10 10:49:32;;;;;;;23.07;12.63;;;;;;;;;;5034789;28;20714;-80
2024/01/10 10:52:02;;;;;;;23.73;12.90;;;;;;;;;;5018743;28;20192;-80
2024/01/10 10:54:30;;;;;;;19.90;12.27;;;;;;;;;;5033806;28;20218;-80
2024/01/10 10:56:58;;;;;;;22.73;13.03;;;;;;;;;;5042799;28;20198;-80
2024/01/10 10:59:26;;;;;;;22.30;12.60;;;;;;;;;;5002929;28;20188;-80
2024/01/10 11:01:53;;;;;;;23.70;13.77;;;;;;;;;;5034924;28;20253;-80
2024/01/10 11:04:20;;;;;;;25.83;14.03;;;;;;;;;;5035292;28;20218;-80
2024/01/10 11:06:46;;;;;;;23.00;13.33;;;;;;;;;;5034756;28;20193;-80
2024/01/10 11:09:14;;;;;;;23.00;13.10;;;;;;;;;;5015039;28;20194;-83
2024/01/10 11:11:51;;;;;;;21.37;12.50;;;;;;;;;;4997854;28;20202;-81
2024/01/10 11:14:37;;;;;;;23.07;13.33;;;;;;;;;;5028021;28;20793;-80
2024/01/10 11:17:06;;;;;;;20.80;12.47;;;;;;;;;;5030803;28;20186;-79
2024/01/10 11:19:38;;;;;;;21.27;12.97;;;;;;;;;;5032317;28;20198;-80
2024/01/10 11:22:34;;;;;;;24.20;13.07;;;;;;;;;;5024337;28;20669;-81
2024/01/10 11:25:00;;;;;;;26.87;12.67;;;;;;;;;;5028662;28;20187;-81
2024/01/10 11:27:27;;;;;;;21.90;12.90;;;;;;;;;;5026638;28;20194;-78
2024/01/10 11:29:53;;;;;;;26.20;14.20;;;;;;;;;;5028794;28;20187;-78
2024/01/10 11:32:23;;;;;;;22.23;13.43;;;;;;;;;;5006661;28;20187;-76
2024/01/10 11:34:56;;;;;;;21.73;12.00;;;;;;;;;;5021906;28;20628;-77
2024/01/10 11:37:22;;;;;;;33.47;21.00;;;;;;;;;;5005748;28;20190;-79
2024/01/10 11:39:49;;;;;;;30.80;18.33;;;;;;;;;;5029891;28;20174;-79
2024/01/10 11:42:41;;;;;;;28.57;15.53;;;;;;;;;;5022783;28;20596;-77
2024/01/10 11:45:08;;;;;;;25.77;13.90;;;;;;;;;;5026214;28;20206;-78
2024/01/10 11:47:34;;;;;;;23.27;14.17;;;;;;;;;;4991535;28;20191;-77
2024/01/10 11:50:02;;;;;;;26.27;14.87;;;;;;;;;;5008928;28;20178;-80
2024/01/10 11:52:38;;;;;;;22.17;12.77;;;;;;;;;;5029111;28;21254;-78
2024/01/10 11:55:07;;;;;;;21.43;13.43;;;;;;;;;;5011458;28;20214;-78
2024/01/10 11:57:33;;;;;;;21.47;13.27;;;;;;;;;;5009465;28;20239;-78
2024/01/10 12:00:01;;;;;;;22.00;13.67;;;;;;;;;;5019845;28;20199;-79
2024/01/10 12:02:28;;;;;;;21.67;13.40;;;;;;;;;;5021921;28;20646;-76
2024/01/10 12:04:54;;;;;;;22.67;12.67;;;;;;;;;;5018473;28;20179;-77
2024/01/10 12:07:21;;;;;;;22.60;13.30;;;;;;;;;;5025063;28;20647;-77
2024/01/10 12:09:48;;;;;;;28.83;16.40;;;;;;;;;;5008403;28;20352;-77
2024/01/10 12:12:14;;;;;;;26.43;15.57;;;;;;;;;;5026045;28;20625;-77
2024/01/10 12:14:41;;;;;;;22.97;13.90;;;;;;;;;;5024676;28;20224;-77
2024/01/10 12:17:08;;;;;;;21.20;13.43;;;;;;;;;;5023223;28;20572;-77
2024/01/10 12:19:37;;;;;;;22.27;13.43;;;;;;;;;;5024922;28;20303;-76
2024/01/10 12:22:05;;;;;;;21.80;13.17;;;;;;;;;;5024689;28;20178;-77
2024/01/10 12:24:32;;;;;;;26.87;15.50;;;;;;;;;;5021546;28;20229;-77
2024/01/10 12:26:58;;;;;;;22.27;13.80;;;;;;;;;;5024459;28;20269;-79
2024/01/10 12:29:26;;;;;;;27.10;15.20;;;;;;;;;;5010562;28;20202;-79
2024/01/10 12:31:52;;;;;;;24.60;14.47;;;;;;;;;;5025297;28;20259;-78
2024/01/10 12:34:18;;;;;;;25.83;15.00;;;;;;;;;;5008730;28;20218;-79
2024/01/10 12:36:46;;;;;;;23.33;14.00;;;;;;;;;;5026195;28;20267;-79
2024/01/10 12:39:13;;;;;;;21.27;13.13;;;;;;;;;;5016775;28;20234;-79
2024/01/10 12:41:40;;;;;;;23.03;14.03;;;;;;;;;;5025507;28;20295;-76
2024/01/10 12:44:07;;;;;;;22.57;14.47;;;;;;;;;;5021596;28;20332;-77
2024/01/10 12:46:33;;;;;;;23.40;14.40;;;;;;;;;;5024569;28;20545;-77
2024/01/10 12:49:01;;;;;;;22.63;13.70;;;;;;;;;;5023897;28;20265;-74
2024/01/10 12:51:29;;;;;;;24.13;14.63;;;;;;;;;;5009047;28;20183;-76
2024/01/10 12:53:56;;;;;;;22.00;13.73;;;;;;;;;;5023196;28;20577;-74
2024/01/10 12:56:22;;;;;;;19.77;12.20;;;;;;;;;;5024644;28;20213;-77
2024/01/10 12:58:48;;;;;;;22.40;13.53;;;;;;;;;;5031671;28;20171;-82
2024/01/10 13:01:15;;;;;;;21.47;13.87;;;;;;;;;;5024449;28;20206;-82
2024/01/10 13:03:42;;;;;;;24.13;15.03;;;;;;;;;;5023586;28;20579;-81
2024/01/10 13:06:09;;;;;;;20.97;13.10;;;;;;;;;;5028603;28;20619;-82
2024/01/10 13:08:35;;;;;;;21.87;13.67;;;;;;;;;;5003460;28;20186;-82
2024/01/10 13:11:04;;;;;;;21.57;13.77;;;;;;;;;;5006340;28;20197;-82
2024/01/10 13:13:30;;;;;;;21.67;14.10;;;;;;;;;;5009626;28;20207;-82
2024/01/10 13:15:56;;;;;;;21.40;13.40;;;;;;;;;;5011128;28;20218;-80
2024/01/10 13:18:22;;;;;;;22.20;13.90;;;;;;;;;;5031543;28;20195;-80
2024/01/10 13:20:48;;;;;;;22.00;13.40;;;;;;;;;;5011903;28;20277;-80
2024/01/10 13:23:15;;;;;;;23.80;14.67;;;;;;;;;;5027513;28;20213;-80
2024/01/10 13:25:42;;;;;;;22.33;14.00;;;;;;;;;;5009984;28;20198;-80
2024/01/10 13:28:11;;;;;;;26.27;14.67;;;;;;;;;;5030741;28;20182;-80
2024/01/10 13:30:41;;;;;;;22.37;13.97;;;;;;;;;;5016559;28;20265;-80
2024/01/10 13:33:09;;;;;;;22.50;14.20;;;;;;;;;;5029444;28;20728;-79
2024/01/10 13:35:35;;;;;;;23.77;14.80;;;;;;;;;;5037027;28;20202;-80
2024/01/10 13:38:01;;;;;;;23.17;14.33;;;;;;;;;;5030291;28;20193;-80
2024/01/10 13:40:27;;;;;;;23.10;14.10;;;;;;;;;;5013979;28;20187;-82
2024/01/10 13:42:54;;;;;;;25.73;14.87;;;;;;;;;;4997900;28;20535;-80
2024/01/10 13:45:21;;;;;;;28.20;15.63;;;;;;;;;;5013874;28;20289;-80
2024/01/10 13:47:49;;;;;;;23.70;14.37;;;;;;;;;;5031651;28;20183;-80
2024/01/10 13:50:16;;;;;;;22.73;14.23;;;;;;;;;;5029553;28;20225;-80
2024/01/10 13:52:43;;;;;;;26.80;13.97;;;;;;;;;;5031465;28;20218;-80
2024/01/10 13:55:09;;;;;;;23.30;13.80;;;;;;;;;;4995857;28;20216;-80
2024/01/10 13:57:35;;;;;;;23.63;13.67;;;;;;;;;;5013022;28;20206;-80
2024/01/10 14:00:03;;;;;;;23.63;12.97;;;;;;;;;;5011158;28;20213;-75
2024/01/10 14:02:38;;;;;;;26.20;14.27;;;;;;;;;;5029666;28;20186;-81
2024/01/10 14:05:05;;;;;;;26.57;15.23;;;;;;;;;;4996264;28;20202;-81
2024/01/10 14:07:33;;;;;;;22.37;14.53;;;;;;;;;;5026197;28;20197;-79
2024/01/10 14:09:59;;;;;;;22.17;13.73;;;;;;;;;;5011583;28;20351;-79
2024/01/10 14:12:28;;;;;;;24.07;14.10;;;;;;;;;;5011301;28;20206;-79
2024/01/10 14:14:55;;;;;;;22.73;13.67;;;;;;;;;;5009050;28;20593;-79
2024/01/10 14:17:22;;;;;;;27.67;15.20;;;;;;;;;;5027531;28;20175;-79